createdAt,value
2022-11-05T00:02:32.428Z,99053.66
2022-11-05T00:05:18.877Z,99056.56
2022-11-05T00:08:07.422Z,99064.06
2022-11-05T00:10:35.964Z,99054.75
2022-11-05T00:13:22.333Z,99052.50
2022-11-05T00:16:08.623Z,99047.97
2022-11-05T00:18:35.960Z,99047.72
2022-11-05T00:21:03.626Z,99049.47
2022-11-05T00:23:49.787Z,99036.06
2022-11-05T00:26:17.215Z,99049.50
2022-11-05T00:28:44.712Z,99046.25
2022-11-05T00:31:13.366Z,99048.19
2022-11-05T00:33:41.943Z,99042.84
2022-11-05T00:36:09.976Z,99038.09
2022-11-05T00:38:37.309Z,99045.94
2022-11-05T00:41:04.934Z,99048.28
2022-11-05T00:43:51.003Z,99055.41
2022-11-05T00:46:18.586Z,99062.25
2022-11-05T00:49:04.706Z,99046.91
2022-11-05T00:51:32.168Z,99051.41
2022-11-05T00:53:59.453Z,99038.25
2022-11-05T00:56:26.760Z,99041.63
2022-11-05T00:58:55.746Z,99040.50
2022-11-05T01:01:23.151Z,99047.63
2022-11-05T01:03:51.739Z,99046.75
2022-11-05T01:06:19.729Z,99053.44
2022-11-05T01:08:47.129Z,99055.37
2022-11-05T01:11:33.420Z,99053.03
2022-11-05T01:14:02.222Z,99058.84
2022-11-05T01:16:29.551Z,99054.00
2022-11-05T01:18:56.866Z,99059.59
2022-11-05T01:21:24.444Z,99061.53
2022-11-05T01:23:51.776Z,99065.28
2022-11-05T01:26:19.117Z,99057.19
2022-11-05T01:28:53.798Z,99056.78
2022-11-05T01:31:21.369Z,99066.72
2022-11-05T01:33:48.954Z,99054.06
2022-11-05T01:36:16.317Z,99054.50
2022-11-05T01:38:43.631Z,99050.31
2022-11-05T01:41:11.204Z,99054.06
2022-11-05T01:43:52.747Z,99062.44
2022-11-05T01:46:23.834Z,99063.69
2022-11-05T01:48:52.035Z,99083.97
2022-11-05T01:51:22.263Z,99085.66
2022-11-05T01:53:52.419Z,99084.81
2022-11-05T01:56:29.086Z,99083.72
2022-11-05T01:59:03.488Z,99074.00
2022-11-05T02:01:31.154Z,99064.69
2022-11-05T02:04:01.470Z,99058.97
2022-11-05T02:06:29.279Z,99072.59
2022-11-05T02:09:07.503Z,99071.91
2022-11-05T02:11:35.172Z,99077.19
2022-11-05T02:14:02.498Z,99092.88
2022-11-05T02:16:48.839Z,99087.19
2022-11-05T02:19:50.376Z,99083.91
2022-11-05T02:22:50.952Z,99085.28
2022-11-05T02:25:51.937Z,99091.47
2022-11-05T02:28:25.094Z,99085.91
2022-11-05T02:31:00.509Z,99091.56
2022-11-05T02:33:58.833Z,99086.91
2022-11-05T02:36:49.798Z,99085.28
2022-11-05T02:39:25.826Z,99088.75
2022-11-05T02:42:11.832Z,99098.12
2022-11-05T02:45:08.862Z,99094.25
2022-11-05T02:47:45.444Z,99090.44
2022-11-05T02:50:20.824Z,99088.22
2022-11-05T02:53:11.165Z,99097.53
2022-11-05T02:55:42.022Z,99092.53
2022-11-05T02:58:10.831Z,99096.19
2022-11-05T03:00:48.531Z,99097.47
2022-11-05T03:03:19.335Z,99096.81
2022-11-05T03:06:18.178Z,99107.28
2022-11-05T03:09:20.247Z,99091.38
2022-11-05T03:12:15.108Z,99086.56
2022-11-05T03:14:51.174Z,99107.56
2022-11-05T03:17:36.630Z,99097.50
2022-11-05T03:20:10.227Z,99110.69
2022-11-05T03:22:40.917Z,99102.47
2022-11-05T03:25:11.337Z,99105.97
2022-11-05T03:27:39.825Z,99106.06
2022-11-05T03:30:09.003Z,99111.91
2022-11-05T03:32:39.040Z,99121.62
2022-11-05T03:35:10.371Z,99121.47
2022-11-05T03:37:38.506Z,99120.31
2022-11-05T03:40:06.748Z,99119.84
2022-11-05T03:42:35.375Z,99112.22
2022-11-05T03:45:07.153Z,99115.38
2022-11-05T03:47:37.272Z,99119.78
2022-11-05T03:50:13.030Z,99129.34
2022-11-05T03:52:44.282Z,99130.88
2022-11-05T03:55:11.866Z,99117.09
2022-11-05T03:57:40.217Z,99132.19
2022-11-05T04:00:08.540Z,99128.88
2022-11-05T04:02:39.024Z,99128.84
2022-11-05T04:05:06.824Z,99142.63
2022-11-05T04:07:52.604Z,99127.19
2022-11-05T04:10:39.195Z,99125.94
2022-11-05T04:13:24.733Z,99116.34
2022-11-05T04:16:11.446Z,99119.50
2022-11-05T04:18:38.763Z,99118.38
2022-11-05T04:21:24.898Z,99127.25
2022-11-05T04:24:10.372Z,99125.47
2022-11-05T04:26:44.589Z,99126.56
2022-11-05T04:29:30.728Z,99119.97
2022-11-05T04:31:58.185Z,99120.44
2022-11-05T04:34:25.496Z,99120.62
2022-11-05T04:36:53.192Z,99105.78
2022-11-05T04:39:20.984Z,99096.13
2022-11-05T04:41:48.744Z,99104.72
2022-11-05T04:44:16.486Z,99113.69
2022-11-05T04:46:44.123Z,99102.63
2022-11-05T04:49:11.450Z,99111.41
2022-11-05T04:51:38.819Z,99109.13
2022-11-05T04:54:06.396Z,99104.88
2022-11-05T04:56:33.831Z,99119.38
2022-11-05T04:59:01.170Z,99117.03
2022-11-05T05:01:28.870Z,99108.56
2022-11-05T05:03:56.301Z,99111.56
2022-11-05T05:06:23.972Z,99110.69
2022-11-05T05:08:51.829Z,99109.03
2022-11-05T05:11:20.312Z,99110.75
2022-11-05T05:13:47.767Z,99104.13
2022-11-05T05:16:23.253Z,99099.97
2022-11-05T05:18:50.814Z,99090.69
2022-11-05T05:21:37.756Z,99108.06
2022-11-05T05:24:13.162Z,99103.53
2022-11-05T05:26:42.429Z,99119.28
2022-11-05T05:29:10.291Z,99116.13
2022-11-05T05:31:37.627Z,99118.94
2022-11-05T05:34:05.530Z,99134.84
2022-11-05T05:36:32.872Z,99134.34
2022-11-05T05:39:00.210Z,99121.56
2022-11-05T05:41:28.279Z,99129.19
2022-11-05T05:43:55.603Z,99123.87
2022-11-05T05:46:22.945Z,99119.69
2022-11-05T05:48:51.418Z,99149.34
2022-11-05T05:51:19.020Z,99136.00
2022-11-05T05:53:46.409Z,99148.69
2022-11-05T05:56:20.478Z,99156.66
2022-11-05T05:58:47.892Z,99168.56
2022-11-05T06:01:19.379Z,99168.91
2022-11-05T06:03:48.063Z,99178.97
2022-11-05T06:06:15.961Z,99184.03
2022-11-05T06:08:43.284Z,99193.44
2022-11-05T06:11:11.022Z,99191.16
2022-11-05T06:13:38.383Z,99209.84
2022-11-05T06:16:07.216Z,99204.34
2022-11-05T06:18:34.928Z,99208.13
2022-11-05T06:21:05.890Z,99213.81
2022-11-05T06:23:33.686Z,99221.19
2022-11-05T06:26:02.432Z,99229.38
2022-11-05T06:28:29.808Z,99230.31
2022-11-05T06:30:57.570Z,99247.09
2022-11-05T06:33:25.228Z,99232.75
2022-11-05T06:35:53.064Z,99240.94
2022-11-05T06:38:20.382Z,99236.63
2022-11-05T06:40:47.951Z,99223.94
2022-11-05T06:43:15.268Z,99228.31
2022-11-05T06:45:42.618Z,99233.53
2022-11-05T06:48:10.247Z,99237.94
2022-11-05T06:50:37.632Z,99249.34
2022-11-05T06:53:05.373Z,99252.41
2022-11-05T06:55:32.964Z,99261.94
2022-11-05T06:58:00.312Z,99261.94
2022-11-05T07:00:27.615Z,99256.97
2022-11-05T07:02:58.414Z,99283.44
2022-11-05T07:05:25.715Z,99267.38
2022-11-05T07:07:53.056Z,99260.50
2022-11-05T07:10:20.653Z,99269.50
2022-11-05T07:12:47.981Z,99279.94
2022-11-05T07:15:15.319Z,99273.78
2022-11-05T07:17:42.904Z,99257.56
2022-11-05T07:20:10.891Z,99263.00
2022-11-05T07:22:38.540Z,99275.59
2022-11-05T07:25:06.559Z,99282.84
2022-11-05T07:27:39.104Z,99275.59
2022-11-05T07:30:09.950Z,99278.09
2022-11-05T07:32:40.822Z,99287.06
2022-11-05T07:35:09.001Z,99275.09
2022-11-05T07:37:46.289Z,99277.41
2022-11-05T07:40:14.496Z,99266.94
2022-11-05T07:42:43.435Z,99271.31
2022-11-05T07:45:11.384Z,99271.50
2022-11-05T07:47:49.196Z,99269.87
2022-11-05T07:50:17.430Z,99271.25
2022-11-05T07:52:45.107Z,99279.78
2022-11-05T07:55:13.318Z,99271.03
2022-11-05T07:57:44.716Z,99277.78
2022-11-05T08:00:20.320Z,99273.84
2022-11-05T08:03:15.261Z,99263.88
2022-11-05T08:05:44.669Z,99282.00
2022-11-05T08:08:14.018Z,99270.47
2022-11-05T08:10:41.372Z,99260.72
2022-11-05T08:13:09.063Z,99259.59
2022-11-05T08:15:36.806Z,99254.28
2022-11-05T08:18:08.383Z,99263.16
2022-11-05T08:20:36.092Z,99258.34
2022-11-05T08:23:03.682Z,99260.41
2022-11-05T08:25:31.090Z,99268.09
2022-11-05T08:27:59.547Z,99244.81
2022-11-05T08:30:27.227Z,99241.66
2022-11-05T08:33:01.385Z,99249.31
2022-11-05T08:35:29.082Z,99258.22
2022-11-05T08:38:00.613Z,99262.25
2022-11-05T08:40:28.071Z,99263.50
2022-11-05T08:42:59.256Z,99261.75
2022-11-05T08:45:27.022Z,99258.78
2022-11-05T08:48:08.135Z,99260.81
2022-11-05T08:50:35.746Z,99271.31
2022-11-05T08:53:03.688Z,99266.94
2022-11-05T08:55:31.312Z,99268.44
2022-11-05T08:57:59.788Z,99270.53
2022-11-05T09:00:28.450Z,99276.50
2022-11-05T09:02:56.635Z,99273.34
2022-11-05T09:05:24.239Z,99292.50
2022-11-05T09:07:53.136Z,99283.66
2022-11-05T09:10:24.135Z,99294.78
2022-11-05T09:12:51.564Z,99286.44
2022-11-05T09:15:18.929Z,99282.09
2022-11-05T09:17:46.485Z,99282.84
2022-11-05T09:20:13.934Z,99298.22
2022-11-05T09:22:43.436Z,99303.59
2022-11-05T09:25:11.325Z,99305.38
2022-11-05T09:27:38.667Z,99304.72
2022-11-05T09:30:06.469Z,99302.44
2022-11-05T09:32:34.048Z,99305.25
2022-11-05T09:35:01.414Z,99315.72
2022-11-05T09:37:28.783Z,99320.59
2022-11-05T09:39:56.379Z,99308.69
2022-11-05T09:42:28.569Z,99307.03
2022-11-05T09:45:03.517Z,99301.84
2022-11-05T09:47:41.370Z,99288.50
2022-11-05T09:50:17.628Z,99287.84
2022-11-05T09:52:44.949Z,99288.06
2022-11-05T09:55:33.778Z,99283.38
2022-11-05T09:58:02.929Z,99311.50
2022-11-05T10:00:30.507Z,99298.03
2022-11-05T10:03:00.224Z,99284.94
2022-11-05T10:05:27.843Z,99290.31
2022-11-05T10:08:03.022Z,99284.81
2022-11-05T10:10:48.023Z,99273.84
2022-11-05T10:13:29.744Z,99297.75
2022-11-05T10:16:06.863Z,99288.00
2022-11-05T10:18:36.418Z,99275.88
2022-11-05T10:21:04.195Z,99287.41
2022-11-05T10:23:32.143Z,99303.72
2022-11-05T10:26:00.662Z,99295.72
2022-11-05T10:28:29.684Z,99281.19
2022-11-05T10:31:07.855Z,99273.56
2022-11-05T10:33:44.731Z,99280.16
2022-11-05T10:36:35.844Z,99278.06
2022-11-05T10:39:09.435Z,99272.06
2022-11-05T10:41:55.454Z,99280.06
2022-11-05T10:44:41.264Z,99281.91
2022-11-05T10:47:39.627Z,99282.19
2022-11-05T10:50:24.628Z,99299.44
2022-11-05T10:52:51.849Z,99286.88
2022-11-05T10:55:29.475Z,99292.34
2022-11-05T10:58:15.678Z,99283.09
2022-11-05T11:00:59.901Z,99286.72
2022-11-05T11:03:39.441Z,99305.09
2022-11-05T11:06:22.375Z,99305.25
2022-11-05T11:08:50.126Z,99300.63
2022-11-05T11:11:36.929Z,99286.66
2022-11-05T11:14:19.408Z,99296.00
2022-11-05T11:16:57.689Z,99281.62
2022-11-05T11:19:27.492Z,99289.78
2022-11-05T11:22:03.761Z,99279.34
2022-11-05T11:24:37.024Z,99280.50
2022-11-05T11:27:11.036Z,99277.75
2022-11-05T11:29:42.908Z,99286.66
2022-11-05T11:32:14.501Z,99290.94
2022-11-05T11:34:41.867Z,99287.31
2022-11-05T11:37:30.411Z,99285.97
2022-11-05T11:40:02.082Z,99278.13
2022-11-05T11:42:34.760Z,99285.91
2022-11-05T11:45:07.829Z,99285.56
2022-11-05T11:47:35.210Z,99286.72
2022-11-05T11:50:03.114Z,99280.78
2022-11-05T11:52:32.207Z,99279.00
2022-11-05T11:55:17.818Z,99263.38
2022-11-05T11:57:50.390Z,99277.00
2022-11-05T12:00:18.461Z,99291.97
2022-11-05T12:03:07.904Z,99290.56
2022-11-05T12:05:58.358Z,99289.75
2022-11-05T12:09:08.244Z,99279.44
2022-11-05T12:12:02.380Z,99284.16
2022-11-05T12:14:53.425Z,99285.13
2022-11-05T12:17:39.647Z,99288.06
2022-11-05T12:20:20.731Z,99298.41
2022-11-05T12:23:01.347Z,99317.84
2022-11-05T12:26:01.196Z,99323.00
2022-11-05T12:29:12.003Z,99320.72
2022-11-05T12:32:10.133Z,99329.81
2022-11-05T12:35:05.345Z,99321.81
2022-11-05T12:38:02.025Z,99323.00
2022-11-05T12:40:36.578Z,99321.41
2022-11-05T12:43:26.536Z,99315.53
2022-11-05T12:46:12.687Z,99315.25
2022-11-05T12:48:43.127Z,99314.91
2022-11-05T12:51:25.131Z,99315.16
2022-11-05T12:54:01.679Z,99324.69
2022-11-05T12:56:44.251Z,99336.47
2022-11-05T12:59:25.230Z,99334.19
2022-11-05T13:02:00.226Z,99345.41
2022-11-05T13:04:43.555Z,99339.69
2022-11-05T13:07:13.714Z,99338.41
2022-11-05T13:09:48.112Z,99338.09
2022-11-05T13:12:15.839Z,99338.87
2022-11-05T13:14:48.848Z,99351.31
2022-11-05T13:17:17.646Z,99347.25
2022-11-05T13:20:17.487Z,99346.09
2022-11-05T13:23:20.234Z,99356.53
2022-11-05T13:25:54.634Z,99361.03
2022-11-05T13:28:25.167Z,99361.31
2022-11-05T13:30:55.190Z,99363.28
2022-11-05T13:33:25.022Z,99357.41
2022-11-05T13:36:45.926Z,99360.69
2022-11-05T13:39:29.928Z,99361.19
2022-11-05T13:42:27.972Z,99366.63
2022-11-05T13:45:13.321Z,99353.41
2022-11-05T13:48:02.063Z,99364.38
2022-11-05T13:51:00.304Z,99358.38
2022-11-05T13:53:53.532Z,99361.28
2022-11-05T13:56:28.889Z,99364.94
2022-11-05T13:59:02.973Z,99355.38
2022-11-05T14:01:39.353Z,99359.59
2022-11-05T14:04:07.145Z,99369.03
2022-11-05T14:06:35.477Z,99365.81
2022-11-05T14:09:04.991Z,99372.31
2022-11-05T14:11:43.256Z,99372.59
2022-11-05T14:14:18.009Z,99368.22
2022-11-05T14:17:07.597Z,99377.09
2022-11-05T14:19:51.512Z,99371.03
2022-11-05T14:22:48.058Z,99360.72
2022-11-05T14:25:18.260Z,99370.53
2022-11-05T14:27:47.532Z,99372.56
2022-11-05T14:30:43.531Z,99374.03
2022-11-05T14:33:40.073Z,99389.47
2022-11-05T14:36:36.863Z,99376.37
2022-11-05T14:39:24.019Z,99387.03
2022-11-05T14:42:04.382Z,99404.50
2022-11-05T14:44:34.286Z,99392.84
2022-11-05T14:47:06.033Z,99389.53
2022-11-05T14:49:36.996Z,99394.50
2022-11-05T14:52:09.197Z,99406.50
2022-11-05T14:54:50.719Z,99403.53
2022-11-05T14:57:43.203Z,99401.69
2022-11-05T15:00:40.441Z,99408.69
2022-11-05T15:03:46.417Z,99415.19
2022-11-05T15:06:27.577Z,99416.47
2022-11-05T15:09:14.510Z,99415.38
2022-11-05T15:11:52.714Z,99432.25
2022-11-05T15:14:34.878Z,99424.72
2022-11-05T15:17:30.910Z,99431.31
2022-11-05T15:20:10.982Z,99416.41
2022-11-05T15:22:41.522Z,99426.47
2022-11-05T15:25:53.888Z,99428.38
2022-11-05T15:28:41.547Z,99430.53
2022-11-05T15:31:14.886Z,99427.22
2022-11-05T15:33:47.610Z,99454.25
2022-11-05T15:36:20.945Z,99442.41
2022-11-05T15:39:08.506Z,99439.03
2022-11-05T15:41:35.824Z,99435.00
2022-11-05T15:44:03.426Z,99439.22
2022-11-05T15:46:31.257Z,99456.91
2022-11-05T15:49:03.631Z,99452.25
2022-11-05T15:51:31.208Z,99451.59
2022-11-05T15:54:24.366Z,99462.06
2022-11-05T15:56:57.085Z,99455.38
2022-11-05T15:59:25.638Z,99453.94
2022-11-05T16:02:24.115Z,99452.06
2022-11-05T16:04:51.803Z,99462.47
2022-11-05T16:07:19.296Z,99468.13
2022-11-05T16:09:52.183Z,99461.63
2022-11-05T16:12:19.753Z,99467.66
2022-11-05T16:15:08.424Z,99478.00
2022-11-05T16:17:55.349Z,99477.66
2022-11-05T16:20:32.063Z,99478.13
2022-11-05T16:23:07.958Z,99479.72
2022-11-05T16:25:38.998Z,99483.63
2022-11-05T16:28:19.257Z,99481.81
2022-11-05T16:30:56.956Z,99499.56
2022-11-05T16:33:32.004Z,99504.72
2022-11-05T16:35:59.352Z,99502.34
2022-11-05T16:38:26.944Z,99494.84
2022-11-05T16:40:54.263Z,99497.22
2022-11-05T16:43:24.187Z,99513.66
2022-11-05T16:45:57.637Z,99499.88
2022-11-05T16:48:25.180Z,99509.38
2022-11-05T16:50:53.091Z,99505.19
2022-11-05T16:53:20.439Z,99511.94
2022-11-05T16:55:47.721Z,99516.00
2022-11-05T16:58:25.499Z,99524.72
2022-11-05T17:00:55.352Z,99528.44
2022-11-05T17:03:22.929Z,99522.97
2022-11-05T17:05:50.289Z,99530.72
2022-11-05T17:08:17.673Z,99536.37
2022-11-05T17:10:45.283Z,99536.94
2022-11-05T17:13:16.360Z,99538.06
2022-11-05T17:15:44.529Z,99544.25
2022-11-05T17:18:17.076Z,99543.41
2022-11-05T17:20:48.080Z,99543.69
2022-11-05T17:23:18.269Z,99550.97
2022-11-05T17:25:56.165Z,99549.47
2022-11-05T17:28:24.037Z,99548.50
2022-11-05T17:30:54.108Z,99540.12
2022-11-05T17:33:22.739Z,99551.66
2022-11-05T17:35:50.768Z,99557.09
2022-11-05T17:38:18.211Z,99554.94
2022-11-05T17:40:45.532Z,99562.44
2022-11-05T17:43:13.422Z,99567.72
2022-11-05T17:45:45.231Z,99553.03
2022-11-05T17:48:13.088Z,99564.78
2022-11-05T17:50:44.607Z,99561.78
2022-11-05T17:53:12.770Z,99560.28
2022-11-05T17:55:44.433Z,99562.47
2022-11-05T17:58:11.751Z,99566.25
2022-11-05T18:00:39.403Z,99567.88
2022-11-05T18:03:07.033Z,99566.09
2022-11-05T18:05:34.457Z,99567.94
2022-11-05T18:08:02.120Z,99573.06
2022-11-05T18:10:29.721Z,99567.72
2022-11-05T18:12:57.064Z,99574.06
2022-11-05T18:15:24.413Z,99569.56
2022-11-05T18:17:51.988Z,99573.56
2022-11-05T18:20:19.797Z,99573.00
2022-11-05T18:22:48.955Z,99578.50
2022-11-05T18:25:16.573Z,99589.47
2022-11-05T18:27:43.889Z,99590.75
2022-11-05T18:30:13.900Z,99596.69
2022-11-05T18:32:42.425Z,99596.81
2022-11-05T18:35:09.807Z,99608.75
2022-11-05T18:37:37.918Z,99607.94
2022-11-05T18:40:06.470Z,99609.63
2022-11-05T18:42:34.056Z,99615.31
2022-11-05T18:45:01.361Z,99618.09
2022-11-05T18:47:28.959Z,99623.91
2022-11-05T18:49:56.302Z,99623.25
2022-11-05T18:52:23.655Z,99625.72
2022-11-05T18:54:51.257Z,99623.59
2022-11-05T18:57:18.621Z,99619.94
2022-11-05T18:59:46.946Z,99630.53
2022-11-05T19:02:14.843Z,99625.25
2022-11-05T19:05:00.358Z,99628.22
2022-11-05T19:07:29.940Z,99636.34
2022-11-05T19:09:57.252Z,99638.72
2022-11-05T19:12:24.584Z,99638.66
2022-11-05T19:14:52.164Z,99645.50
2022-11-05T19:17:19.476Z,99644.00
2022-11-05T19:19:46.813Z,99644.47
2022-11-05T19:22:14.386Z,99650.28
2022-11-05T19:24:41.712Z,99656.69
2022-11-05T19:27:09.027Z,99667.00
2022-11-05T19:29:36.947Z,99659.91
2022-11-05T19:32:04.453Z,99663.06
2022-11-05T19:34:31.891Z,99664.69
2022-11-05T19:36:59.458Z,99672.81
2022-11-05T19:39:26.793Z,99679.25
2022-11-05T19:41:57.623Z,99677.62
2022-11-05T19:44:28.053Z,99676.31
2022-11-05T19:46:55.356Z,99682.59
2022-11-05T19:49:22.692Z,99684.72
2022-11-05T19:51:50.299Z,99687.09
2022-11-05T19:54:17.603Z,99688.87
2022-11-05T19:56:45.635Z,99694.50
2022-11-05T19:59:13.284Z,99693.53
2022-11-05T20:01:40.769Z,99710.28
2022-11-05T20:04:09.532Z,99702.47
2022-11-05T20:06:38.728Z,99707.28
2022-11-05T20:09:25.545Z,99707.62
2022-11-05T20:11:56.987Z,99715.22
2022-11-05T20:14:24.852Z,99714.09
2022-11-05T20:16:52.252Z,99725.38
2022-11-05T20:19:20.952Z,99712.94
2022-11-05T20:21:48.308Z,99721.38
2022-11-05T20:24:22.401Z,99731.66
2022-11-05T20:26:55.164Z,99721.88
2022-11-05T20:29:22.689Z,99724.00
2022-11-05T20:31:50.135Z,99734.63
2022-11-05T20:34:17.707Z,99730.97
2022-11-05T20:36:45.063Z,99737.94
2022-11-05T20:39:12.404Z,99750.53
2022-11-05T20:41:39.978Z,99745.88
2022-11-05T20:44:07.471Z,99748.09
2022-11-05T20:46:34.818Z,99746.25
2022-11-05T20:49:02.423Z,99750.25
2022-11-05T20:51:29.779Z,99745.88
2022-11-05T20:53:58.611Z,99756.78
2022-11-05T20:56:31.249Z,99746.91
2022-11-05T20:58:59.033Z,99756.38
2022-11-05T21:01:27.695Z,99752.53
2022-11-05T21:03:55.184Z,99754.38
2022-11-05T21:06:22.534Z,99758.53
2022-11-05T21:08:50.627Z,99751.41
2022-11-05T21:11:18.541Z,99757.19
2022-11-05T21:13:46.070Z,99758.03
2022-11-05T21:16:18.016Z,99760.81
2022-11-05T21:18:46.173Z,99762.03
2022-11-05T21:21:18.305Z,99765.47
2022-11-05T21:23:45.848Z,99758.84
2022-11-05T21:26:13.778Z,99762.69
2022-11-05T21:28:41.547Z,99764.31
2022-11-05T21:31:08.927Z,99768.66
2022-11-05T21:33:36.388Z,99769.81
2022-11-05T21:36:08.368Z,99770.59
2022-11-05T21:38:35.671Z,99774.47
2022-11-05T21:41:03.127Z,99769.12
2022-11-05T21:43:30.731Z,99769.44
2022-11-05T21:46:01.026Z,99770.13
2022-11-05T21:48:28.407Z,99771.28
2022-11-05T21:51:14.608Z,99783.50
2022-11-05T21:54:00.613Z,99770.81
2022-11-05T21:56:47.022Z,99774.63
2022-11-05T21:59:37.936Z,99777.03
2022-11-05T22:02:05.814Z,99774.59
2022-11-05T22:04:35.267Z,99776.59
2022-11-05T22:07:02.953Z,99778.69
2022-11-05T22:09:30.262Z,99777.50
2022-11-05T22:11:57.846Z,99779.03
2022-11-05T22:14:25.244Z,99778.94
2022-11-05T22:16:52.583Z,99767.50
2022-11-05T22:19:20.357Z,99776.44
2022-11-05T22:21:47.727Z,99777.03
2022-11-05T22:24:15.107Z,99787.94
2022-11-05T22:26:43.071Z,99785.38
2022-11-05T22:29:10.416Z,99783.00
2022-11-05T22:31:37.833Z,99786.81
2022-11-05T22:34:05.543Z,99783.56
2022-11-05T22:36:33.378Z,99784.03
2022-11-05T22:39:00.814Z,99777.09
2022-11-05T22:41:28.515Z,99778.56
2022-11-05T22:43:55.902Z,99781.06
2022-11-05T22:46:24.312Z,99788.78
2022-11-05T22:48:51.905Z,99784.94
2022-11-05T22:51:24.142Z,99783.25
2022-11-05T22:53:51.732Z,99778.72
2022-11-05T22:56:22.381Z,99776.09
2022-11-05T22:58:49.781Z,99778.41
2022-11-05T23:01:17.604Z,99785.22
2022-11-05T23:03:46.109Z,99783.00
2022-11-05T23:06:39.828Z,99790.13
2022-11-05T23:09:37.274Z,99791.50
2022-11-05T23:12:06.406Z,99790.34
2022-11-05T23:14:35.476Z,99790.00
2022-11-05T23:17:21.463Z,99793.69
2022-11-05T23:20:07.974Z,99786.66
2022-11-05T23:22:53.898Z,99785.88
2022-11-05T23:25:22.363Z,99796.88
2022-11-05T23:27:51.117Z,99796.00
2022-11-05T23:30:23.532Z,99804.38
2022-11-05T23:32:51.095Z,99798.19
2022-11-05T23:35:38.418Z,99804.59
2022-11-05T23:38:24.819Z,99809.22
2022-11-05T23:41:10.727Z,99806.50
2022-11-05T23:43:57.379Z,99804.72
2022-11-05T23:46:43.287Z,99802.63
2022-11-05T23:49:10.855Z,99806.62
2022-11-05T23:51:38.194Z,99800.66
2022-11-05T23:54:05.529Z,99798.97
2022-11-05T23:56:33.145Z,99802.00
2022-11-05T23:59:00.478Z,99794.69
